createdAt,value
2019-05-30T00:00:36.795Z,0
2019-05-30T00:01:38.195Z,0
2019-05-30T00:02:39.610Z,0
2019-05-30T00:03:41.018Z,0
2019-05-30T00:04:42.422Z,0
2019-05-30T00:05:43.824Z,0
2019-05-30T00:06:45.248Z,0
2019-05-30T00:07:46.663Z,0
2019-05-30T00:08:48.073Z,0
2019-05-30T00:09:49.476Z,0
2019-05-30T00:10:50.895Z,0
2019-05-30T00:11:52.296Z,0
2019-05-30T00:12:54.580Z,0
2019-05-30T00:13:55.053Z,0
2019-05-30T00:14:56.518Z,0
2019-05-30T00:15:58.657Z,0
2019-05-30T00:16:59.199Z,0
2019-05-30T00:18:00.900Z,0
2019-05-30T00:19:02.897Z,0
2019-05-30T00:20:03.486Z,0
2019-05-30T00:21:05.030Z,0
2019-05-30T00:22:06.059Z,0
2019-05-30T00:23:07.457Z,0
2019-05-30T00:24:08.852Z,0
2019-05-30T00:25:10.247Z,0
2019-05-30T00:26:11.633Z,0
2019-05-30T00:27:13.041Z,0
2019-05-30T00:28:14.455Z,0
2019-05-30T00:29:15.838Z,0
2019-05-30T00:30:24.495Z,0
2019-05-30T00:31:18.618Z,0
2019-05-30T00:32:20.015Z,0
2019-05-30T00:33:21.452Z,0
2019-05-30T00:34:22.866Z,0
2019-05-30T00:35:24.314Z,0
2019-05-30T00:36:25.724Z,0
2019-05-30T00:37:27.119Z,0
2019-05-30T00:38:28.510Z,0
2019-05-30T00:39:29.903Z,0
2019-05-30T00:40:31.358Z,0
2019-05-30T00:41:32.773Z,0
2019-05-30T00:42:34.174Z,0
2019-05-30T00:43:35.570Z,0
2019-05-30T00:44:36.993Z,0
2019-05-30T00:45:38.388Z,0
2019-05-30T00:46:39.783Z,0
2019-05-30T00:47:41.191Z,0
2019-05-30T00:48:42.583Z,0
2019-05-30T00:49:43.985Z,0
2019-05-30T00:50:45.377Z,0
2019-05-30T00:51:46.769Z,0
2019-05-30T00:52:48.150Z,0
2019-05-30T00:53:49.544Z,0
2019-05-30T00:54:50.962Z,0
2019-05-30T00:55:52.369Z,0
2019-05-30T00:56:53.773Z,0
2019-05-30T00:57:56.582Z,0
2019-05-30T00:58:56.578Z,0
2019-05-30T00:59:58.688Z,0
2019-05-30T01:01:00.833Z,0
2019-05-30T01:02:00.776Z,0
2019-05-30T01:03:04.532Z,0
2019-05-30T01:04:03.525Z,0
2019-05-30T01:05:05.156Z,0
2019-05-30T01:06:07.151Z,0
2019-05-30T01:07:07.656Z,0
2019-05-30T01:08:09.063Z,0
2019-05-30T01:09:10.444Z,0
2019-05-30T01:10:11.872Z,0
2019-05-30T01:11:13.268Z,0
2019-05-30T01:12:14.682Z,0
2019-05-30T01:13:16.093Z,0
2019-05-30T01:14:17.494Z,0
2019-05-30T01:15:18.886Z,0
2019-05-30T01:16:20.281Z,0
2019-05-30T01:17:21.676Z,0
2019-05-30T01:18:23.087Z,0
2019-05-30T01:19:24.481Z,0
2019-05-30T01:20:25.875Z,0
2019-05-30T01:21:27.283Z,0
2019-05-30T01:22:28.686Z,0
2019-05-30T01:23:30.085Z,0
2019-05-30T01:24:31.499Z,0
2019-05-30T01:25:32.913Z,0
2019-05-30T01:26:34.320Z,0
2019-05-30T01:27:35.720Z,0
2019-05-30T01:28:37.124Z,0
2019-05-30T01:29:38.535Z,0
2019-05-30T01:30:39.929Z,0
2019-05-30T01:31:41.336Z,0
2019-05-30T01:32:42.731Z,0
2019-05-30T01:33:44.133Z,0
2019-05-30T01:34:45.543Z,0
2019-05-30T01:35:46.972Z,0
2019-05-30T01:36:48.405Z,0
2019-05-30T01:37:49.789Z,0
2019-05-30T01:38:51.230Z,0
2019-05-30T01:39:52.616Z,0
2019-05-30T01:40:54.025Z,0
2019-05-30T01:41:55.411Z,0
2019-05-30T01:42:57.880Z,0
2019-05-30T01:43:58.236Z,0
2019-05-30T01:45:00.324Z,0
2019-05-30T01:46:02.110Z,0
2019-05-30T01:47:04.169Z,0
2019-05-30T01:48:04.679Z,0
2019-05-30T01:49:06.691Z,0
2019-05-30T01:50:08.610Z,0
2019-05-30T01:51:08.667Z,0
2019-05-30T01:52:09.933Z,0
2019-05-30T01:53:11.388Z,0
2019-05-30T01:54:12.712Z,0
2019-05-30T01:55:14.121Z,0
2019-05-30T01:56:15.541Z,0
2019-05-30T01:57:16.933Z,0
2019-05-30T01:58:18.343Z,0
2019-05-30T01:59:19.745Z,0
2019-05-30T02:00:21.714Z,0
2019-05-30T02:01:25.033Z,0
2019-05-30T02:02:23.898Z,0
2019-05-30T02:03:25.293Z,0
2019-05-30T02:04:26.692Z,0
2019-05-30T02:05:28.139Z,0
2019-05-30T02:06:29.559Z,0
2019-05-30T02:07:30.972Z,0
2019-05-30T02:08:32.448Z,0
2019-05-30T02:09:33.855Z,0
2019-05-30T02:10:35.246Z,0
2019-05-30T02:11:36.656Z,4
2019-05-30T02:12:38.065Z,4
2019-05-30T02:13:39.457Z,4
2019-05-30T02:14:40.858Z,0
2019-05-30T02:15:42.259Z,0
2019-05-30T02:16:43.648Z,4
2019-05-30T02:17:45.038Z,4
2019-05-30T02:18:46.461Z,4
2019-05-30T02:19:47.868Z,4
2019-05-30T02:20:49.257Z,8
2019-05-30T02:21:50.663Z,4
2019-05-30T02:22:52.059Z,8
2019-05-30T02:23:53.464Z,8
2019-05-30T02:24:54.863Z,8
2019-05-30T02:25:56.263Z,12
2019-05-30T02:26:57.654Z,12
2019-05-30T02:28:00.039Z,12
2019-05-30T02:29:00.405Z,12
2019-05-30T02:30:04.000Z,16
2019-05-30T02:31:05.140Z,16
2019-05-30T02:32:05.025Z,20
2019-05-30T02:33:07.118Z,20
2019-05-30T02:34:07.495Z,24
2019-05-30T02:35:10.330Z,24
2019-05-30T02:36:11.011Z,28
2019-05-30T02:37:12.792Z,32
2019-05-30T02:38:12.681Z,36
2019-05-30T02:39:14.079Z,36
2019-05-30T02:40:15.648Z,40
2019-05-30T02:41:16.861Z,44
2019-05-30T02:42:18.246Z,52
2019-05-30T02:43:19.646Z,56
2019-05-30T02:44:21.034Z,56
2019-05-30T02:45:22.460Z,64
2019-05-30T02:46:23.893Z,68
2019-05-30T02:47:25.279Z,72
2019-05-30T02:48:26.690Z,80
2019-05-30T02:49:28.090Z,84
2019-05-30T02:50:29.496Z,92
2019-05-30T02:51:30.904Z,100
2019-05-30T02:52:32.332Z,108
2019-05-30T02:53:33.722Z,116
2019-05-30T02:54:35.110Z,124
2019-05-30T02:55:36.503Z,132
2019-05-30T02:56:37.912Z,144
2019-05-30T02:57:39.317Z,156
2019-05-30T02:58:40.723Z,164
2019-05-30T02:59:42.126Z,180
2019-05-30T03:00:43.551Z,192
2019-05-30T03:02:00.013Z,204
2019-05-30T03:02:46.300Z,220
2019-05-30T03:03:47.689Z,232
2019-05-30T03:04:49.097Z,248
2019-05-30T03:05:50.489Z,264
2019-05-30T03:06:51.892Z,276
2019-05-30T03:07:53.301Z,296
2019-05-30T03:08:54.691Z,308
2019-05-30T03:09:56.093Z,324
2019-05-30T03:10:57.487Z,340
2019-05-30T03:11:58.891Z,352
2019-05-30T03:13:01.734Z,364
2019-05-30T03:14:02.224Z,376
2019-05-30T03:15:04.830Z,396
2019-05-30T03:16:04.672Z,408
2019-05-30T03:17:07.156Z,432
2019-05-30T03:18:08.015Z,460
2019-05-30T03:19:10.725Z,492
2019-05-30T03:20:19.016Z,528
2019-05-30T03:21:13.438Z,556
2019-05-30T03:22:13.995Z,580
2019-05-30T03:23:15.113Z,600
2019-05-30T03:24:16.222Z,616
2019-05-30T03:25:17.607Z,624
2019-05-30T03:26:18.997Z,636
2019-05-30T03:27:20.399Z,652
2019-05-30T03:28:21.792Z,672
2019-05-30T03:29:23.184Z,700
2019-05-30T03:30:28.097Z,728
2019-05-30T03:31:29.305Z,744
2019-05-30T03:33:01.883Z,760
2019-05-30T03:33:39.403Z,780
2019-05-30T03:34:30.389Z,808
2019-05-30T03:35:39.344Z,840
2019-05-30T03:36:33.029Z,872
2019-05-30T03:37:34.431Z,912
2019-05-30T03:38:35.827Z,948
2019-05-30T03:39:37.227Z,1000
2019-05-30T03:40:38.620Z,1060
2019-05-30T03:41:40.024Z,1120
2019-05-30T03:42:41.428Z,1204
2019-05-30T03:43:42.821Z,1240
2019-05-30T03:44:44.224Z,1280
2019-05-30T03:45:45.634Z,1416
2019-05-30T03:46:47.036Z,1512
2019-05-30T03:47:48.438Z,1556
2019-05-30T03:48:49.839Z,1604
2019-05-30T03:49:51.233Z,1608
2019-05-30T03:50:52.637Z,1600
2019-05-30T03:51:54.043Z,1588
2019-05-30T03:52:55.432Z,1588
2019-05-30T03:53:56.870Z,1600
2019-05-30T03:54:58.216Z,1632
2019-05-30T03:55:59.622Z,1680
2019-05-30T03:57:01.021Z,1692
2019-05-30T03:58:02.426Z,1728
2019-05-30T03:59:05.618Z,1768
2019-05-30T04:00:06.027Z,1820
2019-05-30T04:01:07.894Z,1864
2019-05-30T04:02:09.130Z,1912
2019-05-30T04:03:10.827Z,1968
2019-05-30T04:04:12.146Z,2036
2019-05-30T04:05:13.587Z,2100
2019-05-30T04:06:14.442Z,2208
2019-05-30T04:07:15.884Z,2336
2019-05-30T04:08:16.245Z,2444
2019-05-30T04:09:22.443Z,2432
2019-05-30T04:10:19.830Z,2356
2019-05-30T04:11:20.196Z,2400
2019-05-30T04:12:21.599Z,2644
2019-05-30T04:13:22.998Z,2660
2019-05-30T04:14:24.399Z,2740
2019-05-30T04:15:25.805Z,2960
2019-05-30T04:16:27.203Z,3184
2019-05-30T04:17:28.597Z,3392
2019-05-30T04:18:29.995Z,3568
2019-05-30T04:19:31.409Z,3728
2019-05-30T04:20:32.819Z,3816
2019-05-30T04:21:34.223Z,3976
2019-05-30T04:22:35.613Z,4144
2019-05-30T04:23:37.021Z,4252
2019-05-30T04:24:38.422Z,4464
2019-05-30T04:25:39.820Z,4728
2019-05-30T04:26:41.221Z,5184
2019-05-30T04:27:42.621Z,5616
2019-05-30T04:28:44.023Z,5740
2019-05-30T04:29:45.416Z,5768
2019-05-30T04:30:46.815Z,6216
2019-05-30T04:31:48.213Z,6632
2019-05-30T04:32:49.614Z,6904
2019-05-30T04:33:51.008Z,7488
2019-05-30T04:34:52.409Z,8672
2019-05-30T04:35:53.821Z,9636
2019-05-30T04:36:55.210Z,8548
2019-05-30T04:37:56.615Z,7424
2019-05-30T04:38:58.023Z,6032
2019-05-30T04:39:59.437Z,5644
2019-05-30T04:41:00.831Z,5372
2019-05-30T04:42:02.256Z,5284
2019-05-30T04:43:03.642Z,5196
2019-05-30T04:44:05.052Z,5076
2019-05-30T04:45:06.460Z,5024
2019-05-30T04:46:10.011Z,4956
2019-05-30T04:47:10.020Z,4816
2019-05-30T04:48:11.698Z,4848
2019-05-30T04:49:13.838Z,4832
2019-05-30T04:50:14.328Z,5032
2019-05-30T04:51:16.336Z,5280
2019-05-30T04:52:21.035Z,5368
2019-05-30T04:53:18.490Z,5652
2019-05-30T04:54:20.899Z,6060
2019-05-30T04:55:22.827Z,6372
2019-05-30T04:56:22.324Z,6536
2019-05-30T04:57:27.010Z,6748
2019-05-30T04:58:25.131Z,6848
2019-05-30T04:59:26.549Z,6720
2019-05-30T05:00:27.942Z,6664
2019-05-30T05:01:29.353Z,7040
2019-05-30T05:02:30.765Z,7552
2019-05-30T05:03:45.182Z,7504
2019-05-30T05:04:33.554Z,7660
2019-05-30T05:05:34.960Z,7728
2019-05-30T05:06:36.371Z,7892
2019-05-30T05:07:37.771Z,7888
2019-05-30T05:08:39.177Z,7568
2019-05-30T05:09:40.595Z,7616
2019-05-30T05:10:42.014Z,7388
2019-05-30T05:11:43.416Z,7396
2019-05-30T05:12:44.835Z,7060
2019-05-30T05:13:46.243Z,6740
2019-05-30T05:14:47.666Z,6352
2019-05-30T05:15:49.082Z,6440
2019-05-30T05:16:50.500Z,6292
2019-05-30T05:17:51.921Z,5984
2019-05-30T05:18:53.313Z,5632
2019-05-30T05:19:54.742Z,5072
2019-05-30T05:20:56.164Z,4836
2019-05-30T05:21:57.582Z,4836
2019-05-30T05:22:58.987Z,4912
2019-05-30T05:24:00.402Z,4536
2019-05-30T05:25:01.815Z,4064
2019-05-30T05:26:03.218Z,3880
2019-05-30T05:27:04.644Z,4024
2019-05-30T05:28:06.059Z,4576
2019-05-30T05:29:07.504Z,5692
2019-05-30T05:30:08.921Z,9980
2019-05-30T05:31:10.331Z,16480
2019-05-30T05:32:11.739Z,19776
2019-05-30T05:33:14.430Z,20096
2019-05-30T05:34:14.539Z,20352
2019-05-30T05:35:16.590Z,21792
2019-05-30T05:36:17.326Z,21984
2019-05-30T05:37:19.033Z,21440
2019-05-30T05:38:20.210Z,22400
2019-05-30T05:39:22.217Z,23456
2019-05-30T05:40:22.857Z,22976
2019-05-30T05:41:24.335Z,23456
2019-05-30T05:42:28.469Z,25952
2019-05-30T05:43:27.008Z,27488
2019-05-30T05:44:28.725Z,26880
2019-05-30T05:45:29.797Z,27488
2019-05-30T05:46:31.204Z,28128
2019-05-30T05:47:32.638Z,27424
2019-05-30T05:48:34.054Z,26368
2019-05-30T05:49:35.474Z,28416
2019-05-30T05:50:36.893Z,29536
2019-05-30T05:51:38.320Z,29216
2019-05-30T05:52:39.729Z,29408
2019-05-30T05:53:41.151Z,30592
2019-05-30T05:54:42.569Z,30912
2019-05-30T05:55:44.031Z,30752
2019-05-30T05:56:45.499Z,30176
2019-05-30T05:57:46.918Z,31456
2019-05-30T05:58:48.336Z,32288
2019-05-30T05:59:49.769Z,34048
2019-05-30T06:00:51.193Z,35680
2019-05-30T06:01:52.644Z,36448
2019-05-30T06:02:54.041Z,34560
2019-05-30T06:03:55.459Z,30784
2019-05-30T06:04:56.882Z,30048
2019-05-30T06:05:59.710Z,31232
2019-05-30T06:07:01.838Z,32320
2019-05-30T06:08:03.997Z,30240
2019-05-30T06:09:05.959Z,30784
2019-05-30T06:10:07.390Z,30272
2019-05-30T06:11:08.816Z,24800
2019-05-30T06:12:10.232Z,17504
2019-05-30T06:13:11.659Z,15584
2019-05-30T06:14:13.106Z,16384
2019-05-30T06:15:14.564Z,15936
2019-05-30T06:16:15.967Z,15968
2019-05-30T06:17:17.436Z,16192
2019-05-30T06:18:20.034Z,16224
2019-05-30T06:19:21.081Z,16288
2019-05-30T06:20:21.654Z,16384
2019-05-30T06:21:23.442Z,16096
2019-05-30T06:22:25.551Z,16288
2019-05-30T06:23:25.927Z,16480
2019-05-30T06:24:27.924Z,16320
2019-05-30T06:25:32.565Z,16448
2019-05-30T06:26:30.123Z,16384
2019-05-30T06:27:31.559Z,16448
2019-05-30T06:28:33.001Z,16512
2019-05-30T06:29:34.432Z,16448
2019-05-30T06:30:35.852Z,16736
2019-05-30T06:31:37.303Z,16416
2019-05-30T06:32:38.727Z,16704
2019-05-30T06:33:40.158Z,15840
2019-05-30T06:34:41.604Z,16160
2019-05-30T06:35:43.060Z,15968
2019-05-30T06:36:44.480Z,16064
2019-05-30T06:37:45.922Z,16896
2019-05-30T06:38:47.343Z,17184
2019-05-30T06:39:48.784Z,17440
2019-05-30T06:40:50.228Z,16864
2019-05-30T06:41:51.699Z,17184
2019-05-30T06:42:53.163Z,16832
2019-05-30T06:43:54.588Z,16896
2019-05-30T06:44:56.023Z,17536
2019-05-30T06:45:57.457Z,17760
2019-05-30T06:46:58.908Z,17920
2019-05-30T06:48:00.348Z,18080
2019-05-30T06:49:01.786Z,18560
2019-05-30T06:50:03.232Z,18208
2019-05-30T06:51:04.682Z,18976
2019-05-30T06:52:06.160Z,18272
2019-05-30T06:53:07.579Z,18688
2019-05-30T06:54:09.018Z,19136
2019-05-30T06:55:10.457Z,19488
2019-05-30T06:56:11.879Z,19168
2019-05-30T06:57:13.323Z,19072
2019-05-30T06:58:14.754Z,19392
2019-05-30T06:59:16.192Z,19392
2019-05-30T07:00:17.628Z,18944
2019-05-30T07:01:19.057Z,19072
2019-05-30T07:02:21.854Z,18432
2019-05-30T07:03:22.141Z,18336
2019-05-30T07:04:24.043Z,18048
2019-05-30T07:05:26.195Z,18528
2019-05-30T07:06:27.267Z,18176
2019-05-30T07:07:28.876Z,18080
2019-05-30T07:08:28.959Z,18432
2019-05-30T07:09:30.980Z,18880
2019-05-30T07:10:33.013Z,19392
2019-05-30T07:11:33.172Z,19648
2019-05-30T07:12:34.613Z,20096
2019-05-30T07:13:36.076Z,20128
2019-05-30T07:14:37.506Z,20064
2019-05-30T07:15:38.931Z,19808
2019-05-30T07:16:40.388Z,19712
2019-05-30T07:17:41.819Z,19488
2019-05-30T07:18:44.070Z,19200
2019-05-30T07:19:45.502Z,19424
2019-05-30T07:20:46.938Z,20096
2019-05-30T07:21:48.369Z,21344
2019-05-30T07:22:49.810Z,21408
2019-05-30T07:23:51.251Z,21792
2019-05-30T07:24:52.703Z,23712
2019-05-30T07:25:54.114Z,27648
2019-05-30T07:26:55.539Z,33408
2019-05-30T07:27:56.968Z,40576
2019-05-30T07:29:00.661Z,48448
2019-05-30T07:29:59.784Z,53376
2019-05-30T07:31:01.214Z,52384
2019-05-30T07:32:02.643Z,51360
2019-05-30T07:33:04.056Z,51552
2019-05-30T07:34:05.477Z,55712
2019-05-30T07:35:07.505Z,53344
2019-05-30T07:36:08.331Z,51360
2019-05-30T07:37:09.765Z,50816
2019-05-30T07:38:11.175Z,49824
2019-05-30T07:39:12.607Z,47104
2019-05-30T07:40:19.022Z,45824
2019-05-30T07:41:15.418Z,46144
2019-05-30T07:42:16.848Z,46336
2019-05-30T07:43:18.279Z,44608
2019-05-30T07:44:19.706Z,42848
2019-05-30T07:45:21.128Z,42656
2019-05-30T07:46:22.554Z,42112
2019-05-30T07:47:23.980Z,42016
2019-05-30T07:48:25.945Z,45184
2019-05-30T07:49:26.792Z,49248
2019-05-30T07:50:28.378Z,51744
2019-05-30T07:51:30.577Z,48384
2019-05-30T07:52:30.989Z,45216
2019-05-30T07:53:32.839Z,48192
2019-05-30T07:54:35.042Z,51936
2019-05-30T07:55:35.253Z,49824
2019-05-30T07:56:37.913Z,48064
2019-05-30T07:57:40.973Z,49344
2019-05-30T07:58:39.418Z,53088
2019-05-30T07:59:40.857Z,51904
2019-05-30T08:00:42.292Z,51328
2019-05-30T08:01:43.720Z,51136
2019-05-30T08:02:45.146Z,50688
2019-05-30T08:03:46.568Z,48992
2019-05-30T08:04:48.001Z,47904
2019-05-30T08:05:49.429Z,48736
2019-05-30T08:06:50.867Z,49664
2019-05-30T08:07:52.295Z,50752
2019-05-30T08:08:53.723Z,53216
2019-05-30T08:09:55.158Z,55264
2019-05-30T08:11:08.782Z,57824
2019-05-30T08:11:57.970Z,59040
2019-05-30T08:12:59.421Z,57248
2019-05-30T08:14:00.854Z,57760
2019-05-30T08:15:02.302Z,58528
2019-05-30T08:16:03.733Z,59328
2019-05-30T08:17:05.156Z,61600
2019-05-30T08:18:06.629Z,62560
2019-05-30T08:19:08.089Z,63968
2019-05-30T08:20:09.539Z,66400
2019-05-30T08:21:10.971Z,63680
2019-05-30T08:22:12.408Z,57120
2019-05-30T08:23:13.847Z,54848
2019-05-30T08:24:15.294Z,57600
2019-05-30T08:25:16.733Z,60160
2019-05-30T08:26:18.426Z,62432
2019-05-30T08:27:19.554Z,66240
2019-05-30T08:28:21.227Z,72832
2019-05-30T08:29:22.658Z,79232
2019-05-30T08:30:24.096Z,77760
2019-05-30T08:31:25.525Z,73344
2019-05-30T08:32:28.286Z,72736
2019-05-30T08:33:29.457Z,77696
2019-05-30T08:34:30.377Z,78720
2019-05-30T08:35:46.734Z,75392
2019-05-30T08:36:32.826Z,65376
2019-05-30T08:37:35.144Z,70400
2019-05-30T08:38:35.467Z,74432
2019-05-30T08:39:37.374Z,69280
2019-05-30T08:40:39.475Z,62560
2019-05-30T08:41:39.716Z,63680
2019-05-30T08:42:41.172Z,67872
2019-05-30T08:43:42.611Z,58880
2019-05-30T08:44:44.035Z,52800
2019-05-30T08:45:45.454Z,67968
2019-05-30T08:46:46.883Z,75584
2019-05-30T08:47:48.313Z,75776
2019-05-30T08:48:49.740Z,70784
2019-05-30T08:49:51.163Z,68480
2019-05-30T08:50:52.592Z,67136
2019-05-30T08:51:54.063Z,63680
2019-05-30T08:52:55.511Z,64928
2019-05-30T08:53:57.431Z,63808
2019-05-30T08:54:58.885Z,64928
2019-05-30T08:56:00.327Z,58592
2019-05-30T08:57:01.756Z,4264
2019-05-30T08:58:03.164Z,71840
2019-05-30T08:59:04.632Z,68864
2019-05-30T09:00:06.092Z,63680
